createdAt,value
2023-01-25T00:01:09.562Z,46.20
2023-01-25T00:03:11.146Z,54.20
2023-01-25T00:05:12.716Z,54.88
2023-01-25T00:07:14.222Z,55.55
2023-01-25T00:09:16.978Z,42.20
2023-01-25T00:11:19.897Z,41.45
2023-01-25T00:13:21.424Z,34.92
2023-01-25T00:15:23.694Z,38.45
2023-01-25T00:17:26.355Z,29.83
2023-01-25T00:19:27.897Z,31.25
2023-01-25T00:21:29.459Z,43.70
2023-01-25T00:23:34.332Z,43.72
2023-01-25T00:25:35.896Z,41.67
2023-01-25T00:27:37.441Z,39.17
2023-01-25T00:29:38.937Z,36.60
2023-01-25T00:31:58.788Z,34.50
2023-01-25T00:34:24.866Z,28.20
2023-01-25T00:36:37.249Z,25.02
2023-01-25T00:38:38.800Z,21.45
2023-01-25T00:40:40.325Z,31.95
2023-01-25T00:42:42.053Z,28.45
2023-01-25T00:44:43.867Z,24.98
2023-01-25T00:46:45.539Z,25.63
2023-01-25T00:48:47.241Z,26.08
2023-01-25T00:50:48.755Z,22.23
2023-01-25T00:52:50.317Z,20.58
2023-01-25T00:54:51.811Z,20.40
2023-01-25T00:56:53.951Z,28.33
2023-01-25T00:58:55.482Z,33.70
2023-01-25T01:00:57.696Z,53.75
2023-01-25T01:02:59.258Z,29.27
2023-01-25T01:05:01.316Z,37.20
2023-01-25T01:07:03.114Z,24.15
2023-01-25T01:09:06.873Z,24.48
2023-01-25T01:11:12.549Z,20.38
2023-01-25T01:13:14.067Z,24.52
2023-01-25T01:15:15.658Z,23.45
2023-01-25T01:17:17.163Z,28.55
2023-01-25T01:19:18.805Z,39.40
2023-01-25T01:21:20.840Z,30.67
2023-01-25T01:23:22.334Z,29.73
2023-01-25T01:25:24.002Z,31.30
2023-01-25T01:27:25.507Z,29.25
2023-01-25T01:29:27.076Z,33.42
2023-01-25T01:31:28.858Z,37.15
2023-01-25T01:33:30.552Z,17.92
2023-01-25T01:35:33.056Z,37.45
2023-01-25T01:37:34.541Z,40.50
2023-01-25T01:39:36.122Z,35.80
2023-01-25T01:41:38.278Z,23.98
2023-01-25T01:43:40.034Z,28.88
2023-01-25T01:45:50.736Z,30.05
2023-01-25T01:47:52.345Z,24.58
2023-01-25T01:49:58.206Z,22.00
2023-01-25T01:52:04.545Z,25.15
2023-01-25T01:54:14.328Z,36.13
2023-01-25T01:56:23.682Z,24.00
2023-01-25T01:58:26.031Z,21.30
2023-01-25T02:00:32.646Z,18.05
2023-01-25T02:02:34.335Z,20.83
2023-01-25T02:04:36.064Z,24.27
2023-01-25T02:07:02.053Z,24.55
2023-01-25T02:09:03.734Z,22.08
2023-01-25T02:11:05.557Z,23.65
2023-01-25T02:13:07.058Z,26.13
2023-01-25T02:15:09.623Z,36.47
2023-01-25T02:17:12.234Z,31.42
2023-01-25T02:19:38.388Z,30.02
2023-01-25T02:21:46.004Z,26.25
2023-01-25T02:24:06.125Z,20.90
2023-01-25T02:26:07.954Z,21.75
2023-01-25T02:28:14.276Z,22.35
2023-01-25T02:30:16.231Z,19.75
2023-01-25T02:32:17.808Z,20.60
2023-01-25T02:34:19.300Z,17.73
2023-01-25T02:36:29.934Z,19.40
2023-01-25T02:38:34.251Z,17.83
2023-01-25T02:41:01.184Z,22.17
2023-01-25T02:43:02.766Z,20.73
2023-01-25T02:45:06.978Z,21.67
2023-01-25T02:47:09.177Z,17.10
2023-01-25T02:49:11.756Z,18.50
2023-01-25T02:51:13.288Z,14.73
2023-01-25T02:53:14.807Z,15.55
2023-01-25T02:55:16.420Z,16.08
2023-01-25T02:57:17.966Z,17.17
2023-01-25T02:59:19.592Z,17.05
2023-01-25T03:01:21.849Z,15.40
2023-01-25T03:03:23.378Z,15.75
2023-01-25T03:05:25.001Z,19.23
2023-01-25T03:07:26.497Z,21.05
2023-01-25T03:09:28.121Z,24.67
2023-01-25T03:11:29.635Z,25.52
2023-01-25T03:13:31.976Z,25.30
2023-01-25T03:15:33.530Z,18.35
2023-01-25T03:17:35.041Z,25.85
2023-01-25T03:19:36.566Z,26.52
2023-01-25T03:21:40.612Z,35.22
2023-01-25T03:23:43.450Z,41.22
2023-01-25T03:25:44.921Z,54.67
2023-01-25T03:27:46.426Z,44.35
2023-01-25T03:29:47.991Z,40.13
2023-01-25T03:31:49.650Z,54.72
2023-01-25T03:33:51.494Z,54.58
2023-01-25T03:35:54.531Z,39.05
2023-01-25T03:37:56.068Z,37.33
2023-01-25T03:39:58.179Z,27.50
2023-01-25T03:41:59.670Z,23.58
2023-01-25T03:44:01.186Z,27.33
2023-01-25T03:46:02.895Z,29.80
2023-01-25T03:48:04.909Z,15.40
2023-01-25T03:50:07.315Z,22.33
2023-01-25T03:52:09.363Z,21.05
2023-01-25T03:54:10.964Z,20.38
2023-01-25T03:56:17.560Z,23.17
2023-01-25T03:58:19.110Z,23.75
2023-01-25T04:00:21.869Z,24.73
2023-01-25T04:02:23.467Z,25.00
2023-01-25T04:04:25.028Z,21.45
2023-01-25T04:06:26.520Z,58.80
2023-01-25T04:08:28.100Z,25.60
2023-01-25T04:10:29.653Z,23.88
2023-01-25T04:12:31.168Z,22.40
2023-01-25T04:14:44.062Z,18.50
2023-01-25T04:16:46.465Z,21.48
2023-01-25T04:18:48.051Z,19.67
2023-01-25T04:20:56.738Z,18.67
2023-01-25T04:22:58.379Z,12.50
2023-01-25T04:24:59.947Z,12.77
2023-01-25T04:27:01.437Z,13.00
2023-01-25T04:29:02.978Z,15.18
2023-01-25T04:31:06.199Z,17.80
2023-01-25T04:33:08.096Z,25.52
2023-01-25T04:35:09.977Z,21.05
2023-01-25T04:37:11.779Z,22.15
2023-01-25T04:39:13.325Z,24.17
2023-01-25T04:41:14.803Z,18.00
2023-01-25T04:43:17.176Z,17.75
2023-01-25T04:45:18.762Z,20.10
2023-01-25T04:47:20.267Z,23.25
2023-01-25T04:49:21.779Z,19.88
2023-01-25T04:51:23.364Z,32.53
2023-01-25T04:53:24.881Z,23.73
2023-01-25T04:55:26.439Z,18.80
2023-01-25T04:57:27.959Z,15.05
2023-01-25T04:59:29.495Z,15.02
2023-01-25T05:01:33.398Z,16.50
2023-01-25T05:03:35.036Z,14.60
2023-01-25T05:05:36.547Z,14.43
2023-01-25T05:07:38.160Z,15.23
2023-01-25T05:09:39.676Z,13.48
2023-01-25T05:11:41.205Z,14.43
2023-01-25T05:13:42.789Z,21.85
2023-01-25T05:15:44.451Z,21.50
2023-01-25T05:17:45.969Z,19.20
2023-01-25T05:19:47.519Z,13.70
2023-01-25T05:21:58.297Z,14.25
2023-01-25T05:23:59.855Z,13.23
2023-01-25T05:26:20.110Z,14.15
2023-01-25T05:28:21.756Z,20.38
2023-01-25T05:30:23.394Z,23.08
2023-01-25T05:32:25.224Z,24.13
2023-01-25T05:34:26.810Z,19.52
2023-01-25T05:36:28.346Z,19.92
2023-01-25T05:38:30.455Z,22.08
2023-01-25T05:40:32.077Z,18.35
2023-01-25T05:42:33.749Z,22.17
2023-01-25T05:44:35.225Z,23.42
2023-01-25T05:46:36.755Z,22.80
2023-01-25T05:48:39.539Z,19.88
2023-01-25T05:50:41.059Z,19.92
2023-01-25T05:52:42.605Z,20.90
2023-01-25T05:54:44.183Z,20.85
2023-01-25T05:56:45.758Z,13.82
2023-01-25T05:58:47.272Z,15.75
2023-01-25T06:00:48.845Z,23.40
2023-01-25T06:02:50.472Z,32.33
2023-01-25T06:04:52.135Z,40.50
2023-01-25T06:06:53.703Z,105.03
2023-01-25T06:08:55.248Z,45.15
2023-01-25T06:10:57.229Z,73.35
2023-01-25T06:12:59.337Z,25.48
2023-01-25T06:15:00.875Z,27.23
2023-01-25T06:17:02.406Z,32.83
2023-01-25T06:19:05.573Z,33.08
2023-01-25T06:21:07.403Z,30.45
2023-01-25T06:23:08.926Z,40.78
2023-01-25T06:25:10.848Z,43.90
2023-01-25T06:27:12.776Z,48.55
2023-01-25T06:29:14.389Z,52.45
2023-01-25T06:31:17.936Z,41.90
2023-01-25T06:33:19.514Z,39.45
2023-01-25T06:35:21.108Z,42.42
2023-01-25T06:37:23.059Z,50.33
2023-01-25T06:39:24.778Z,42.35
2023-01-25T06:41:26.816Z,47.15
2023-01-25T06:43:28.676Z,50.85
2023-01-25T06:45:30.158Z,57.28
2023-01-25T06:47:31.651Z,57.65
2023-01-25T06:49:33.187Z,43.55
2023-01-25T06:51:34.699Z,46.80
2023-01-25T06:53:39.971Z,42.03
2023-01-25T06:55:41.505Z,36.42
2023-01-25T06:57:43.018Z,38.78
2023-01-25T06:59:44.606Z,38.22
2023-01-25T07:01:46.230Z,38.13
2023-01-25T07:03:52.943Z,38.05
2023-01-25T07:06:03.482Z,37.75
2023-01-25T07:08:05.261Z,40.05
2023-01-25T07:10:07.258Z,45.95
2023-01-25T07:12:08.862Z,54.20
2023-01-25T07:14:10.381Z,58.85
2023-01-25T07:16:14.285Z,61.05
2023-01-25T07:18:16.786Z,80.35
2023-01-25T07:20:18.431Z,52.35
2023-01-25T07:22:19.950Z,38.60
2023-01-25T07:24:21.545Z,40.42
2023-01-25T07:26:25.540Z,43.53
2023-01-25T07:28:27.252Z,44.58
2023-01-25T07:30:29.059Z,42.75
2023-01-25T07:32:30.663Z,50.90
2023-01-25T07:34:32.219Z,54.97
2023-01-25T07:36:33.706Z,56.40
2023-01-25T07:38:36.412Z,57.78
2023-01-25T07:40:37.994Z,66.18
2023-01-25T07:42:39.494Z,69.32
2023-01-25T07:44:41.359Z,59.85
2023-01-25T07:46:42.898Z,45.25
2023-01-25T07:48:49.398Z,54.30
2023-01-25T07:51:10.839Z,44.10
2023-01-25T07:53:18.331Z,53.58
2023-01-25T07:55:20.206Z,47.13
2023-01-25T07:57:21.768Z,49.58
2023-01-25T07:59:24.477Z,43.00
2023-01-25T08:01:27.861Z,37.67
2023-01-25T08:03:29.391Z,35.38
2023-01-25T08:05:30.958Z,39.17
2023-01-25T08:07:32.548Z,38.47
2023-01-25T08:09:34.199Z,35.72
2023-01-25T08:11:36.002Z,40.60
2023-01-25T08:13:37.594Z,54.35
2023-01-25T08:15:39.567Z,51.13
2023-01-25T08:17:41.192Z,52.72
2023-01-25T08:19:43.491Z,44.58
2023-01-25T08:21:44.969Z,41.13
2023-01-25T08:23:46.832Z,37.45
2023-01-25T08:25:48.458Z,29.77
2023-01-25T08:27:52.170Z,27.25
2023-01-25T08:29:55.751Z,34.28
2023-01-25T08:31:57.421Z,36.92
2023-01-25T08:34:00.681Z,40.85
2023-01-25T08:36:03.002Z,32.25
2023-01-25T08:38:04.693Z,35.30
2023-01-25T08:40:07.867Z,39.83
2023-01-25T08:42:10.020Z,23.48
2023-01-25T08:44:11.697Z,28.02
2023-01-25T08:46:15.139Z,27.00
2023-01-25T08:48:16.657Z,22.40
2023-01-25T08:50:18.201Z,26.35
2023-01-25T08:52:21.786Z,31.20
2023-01-25T08:54:24.475Z,20.17
2023-01-25T08:56:26.154Z,17.63
2023-01-25T08:58:27.656Z,14.10
2023-01-25T09:00:29.262Z,14.60
2023-01-25T09:02:31.777Z,12.35
2023-01-25T09:04:33.342Z,20.90
2023-01-25T09:06:34.921Z,19.90
2023-01-25T09:08:38.049Z,17.92
2023-01-25T09:10:39.587Z,19.08
2023-01-25T09:12:46.019Z,21.35
2023-01-25T09:14:47.517Z,23.02
2023-01-25T09:16:49.116Z,18.33
2023-01-25T09:18:51.031Z,15.88
2023-01-25T09:20:52.703Z,14.80
2023-01-25T09:22:55.400Z,14.45
2023-01-25T09:24:56.982Z,13.43
2023-01-25T09:27:00.025Z,15.07
2023-01-25T09:29:01.938Z,17.83
2023-01-25T09:31:20.410Z,21.90
2023-01-25T09:33:28.554Z,16.15
2023-01-25T09:35:31.272Z,18.90
2023-01-25T09:37:33.600Z,16.85
2023-01-25T09:39:35.164Z,15.10
2023-01-25T09:41:45.275Z,15.75
2023-01-25T09:44:13.738Z,12.43
2023-01-25T09:46:32.367Z,12.13
2023-01-25T09:49:07.582Z,10.40
2023-01-25T09:51:25.926Z,9.90
2023-01-25T09:53:53.756Z,12.60
2023-01-25T09:55:59.662Z,14.30
2023-01-25T09:58:04.160Z,15.73
2023-01-25T10:00:32.705Z,12.45
2023-01-25T10:02:44.465Z,14.55
2023-01-25T10:04:50.287Z,19.05
2023-01-25T10:07:04.549Z,13.00
2023-01-25T10:09:19.626Z,11.32
2023-01-25T10:11:30.706Z,9.85
2023-01-25T10:13:37.133Z,16.52
2023-01-25T10:15:53.125Z,8.80
2023-01-25T10:18:26.968Z,9.70
2023-01-25T10:20:35.867Z,10.13
2023-01-25T10:22:46.764Z,8.00
2023-01-25T10:24:55.685Z,9.15
2023-01-25T10:27:18.093Z,8.57
2023-01-25T10:29:25.207Z,12.63
2023-01-25T10:31:53.629Z,16.88
2023-01-25T10:33:56.975Z,9.85
2023-01-25T10:36:21.964Z,12.02
2023-01-25T10:38:45.647Z,11.60
2023-01-25T10:40:54.504Z,12.05
2023-01-25T10:43:06.222Z,11.77
2023-01-25T10:45:15.852Z,18.50
2023-01-25T10:47:27.852Z,9.73
2023-01-25T10:49:42.928Z,10.73
2023-01-25T10:51:44.800Z,9.30
2023-01-25T10:53:59.412Z,22.33
2023-01-25T10:56:25.745Z,8.00
2023-01-25T10:59:05.857Z,15.70
2023-01-25T11:01:12.203Z,8.68
2023-01-25T11:03:20.875Z,8.68
2023-01-25T11:05:39.600Z,72.70
2023-01-25T11:07:41.146Z,13.25
2023-01-25T11:09:43.278Z,13.23
2023-01-25T11:11:59.335Z,8.73
2023-01-25T11:14:01.016Z,13.40
2023-01-25T11:16:04.919Z,7.28
2023-01-25T11:18:12.915Z,8.55
2023-01-25T11:20:20.390Z,7.90
2023-01-25T11:22:26.168Z,6.00
2023-01-25T11:24:45.925Z,6.95
2023-01-25T11:29:07.587Z,13.77
2023-01-25T11:31:29.443Z,9.40
2023-01-25T11:33:41.207Z,13.57
2023-01-25T11:36:01.490Z,10.77
2023-01-25T11:38:14.381Z,12.88
2023-01-25T11:40:27.196Z,29.15
2023-01-25T11:42:32.543Z,16.98
2023-01-25T11:45:00.226Z,8.10
2023-01-25T11:47:13.507Z,10.70
2023-01-25T11:49:23.120Z,9.88
2023-01-25T11:51:42.650Z,11.95
2023-01-25T11:54:09.562Z,12.23
2023-01-25T11:56:20.643Z,12.05
2023-01-25T11:58:40.482Z,21.77
2023-01-25T12:01:06.780Z,23.98
2023-01-25T12:03:36.394Z,43.58
2023-01-25T12:08:00.824Z,14.55
2023-01-25T12:10:23.696Z,13.45
2023-01-25T12:12:42.009Z,11.27
2023-01-25T12:14:53.418Z,11.80
2023-01-25T12:17:33.300Z,11.15
2023-01-25T12:19:57.674Z,15.18
2023-01-25T12:22:28.460Z,11.98
2023-01-25T12:25:01.080Z,11.30
2023-01-25T12:27:21.360Z,13.18
2023-01-25T12:29:32.670Z,12.25
2023-01-25T12:31:51.559Z,14.15
2023-01-25T12:34:03.776Z,14.68
2023-01-25T12:36:17.510Z,17.23
2023-01-25T12:38:35.406Z,35.95
2023-01-25T12:40:42.708Z,30.10
2023-01-25T12:42:55.932Z,23.45
2023-01-25T12:45:05.660Z,21.35
2023-01-25T12:49:19.588Z,13.18
2023-01-25T12:51:24.392Z,15.27
2023-01-25T12:53:37.489Z,17.83
2023-01-25T12:55:43.673Z,33.40
2023-01-25T12:58:02.835Z,34.28
2023-01-25T13:00:30.742Z,17.45
2023-01-25T13:04:58.972Z,29.65
2023-01-25T13:07:14.956Z,40.92
2023-01-25T13:09:26.561Z,32.50
2023-01-25T13:11:38.209Z,27.60
2023-01-25T13:13:44.794Z,36.35
2023-01-25T13:15:46.681Z,30.15
2023-01-25T13:17:48.229Z,26.00
2023-01-25T13:19:51.527Z,20.17
2023-01-25T13:21:56.624Z,22.25
2023-01-25T13:24:34.872Z,15.77
2023-01-25T13:26:54.368Z,14.23
2023-01-25T13:29:00.539Z,28.85
2023-01-25T13:31:02.351Z,14.98
2023-01-25T13:33:07.290Z,27.98
2023-01-25T13:35:29.804Z,16.48
2023-01-25T13:41:12.051Z,13.05
2023-01-25T13:43:20.470Z,13.65
2023-01-25T13:45:24.431Z,14.68
2023-01-25T13:47:39.831Z,20.25
2023-01-25T13:50:02.091Z,20.83
2023-01-25T13:52:20.113Z,19.85
2023-01-25T13:54:24.392Z,16.58
2023-01-25T13:56:55.524Z,52.50
2023-01-25T13:58:57.441Z,25.27
2023-01-25T14:01:17.309Z,25.73
2023-01-25T14:03:30.368Z,14.35
2023-01-25T14:05:40.487Z,17.88
2023-01-25T14:07:54.521Z,21.35
2023-01-25T14:09:57.677Z,19.02
2023-01-25T14:12:01.864Z,18.90
2023-01-25T14:14:49.495Z,26.95
2023-01-25T14:17:19.574Z,18.55
2023-01-25T14:19:21.032Z,20.40
2023-01-25T14:21:29.126Z,25.73
2023-01-25T14:25:59.340Z,22.45
2023-01-25T14:28:08.757Z,21.15
2023-01-25T14:30:19.003Z,23.77
2023-01-25T14:32:23.970Z,21.42
2023-01-25T14:34:27.028Z,22.90
2023-01-25T14:36:31.419Z,26.45
2023-01-25T14:38:36.150Z,70.13
2023-01-25T14:40:37.839Z,41.13
2023-01-25T14:42:39.419Z,20.92
2023-01-25T14:44:41.360Z,40.25
2023-01-25T14:46:42.891Z,38.25
2023-01-25T14:48:45.199Z,44.67
2023-01-25T14:50:47.121Z,53.42
2023-01-25T14:52:48.812Z,49.88
2023-01-25T14:54:53.402Z,32.70
2023-01-25T14:56:57.661Z,38.05
2023-01-25T14:59:00.436Z,46.00
2023-01-25T15:01:03.242Z,35.65
2023-01-25T15:03:06.124Z,27.90
2023-01-25T15:05:17.025Z,33.88
2023-01-25T15:07:57.990Z,33.28
2023-01-25T15:10:23.389Z,41.00
2023-01-25T15:12:30.299Z,39.50
2023-01-25T15:14:32.136Z,50.33
2023-01-25T15:16:34.526Z,55.85
2023-01-25T15:18:52.358Z,55.83
2023-01-25T15:20:53.878Z,51.88
2023-01-25T15:22:56.840Z,55.00
2023-01-25T15:24:58.737Z,51.35
2023-01-25T15:27:00.374Z,74.07
2023-01-25T15:29:12.719Z,70.68
2023-01-25T15:31:17.895Z,83.45
2023-01-25T15:33:22.909Z,63.28
2023-01-25T15:35:24.417Z,54.08
2023-01-25T15:37:25.893Z,61.05
2023-01-25T15:39:27.824Z,44.08
2023-01-25T15:41:29.311Z,46.13
2023-01-25T15:43:30.826Z,48.70
2023-01-25T15:45:33.050Z,68.15
2023-01-25T15:47:34.705Z,73.03
2023-01-25T15:49:39.424Z,56.38
2023-01-25T15:51:42.252Z,56.13
2023-01-25T15:53:44.235Z,44.83
2023-01-25T15:55:49.104Z,50.10
2023-01-25T15:57:50.701Z,44.05
2023-01-25T15:59:52.284Z,64.90
2023-01-25T16:01:53.846Z,66.60
2023-01-25T16:03:57.015Z,59.05
2023-01-25T16:06:04.077Z,61.22
2023-01-25T16:08:05.748Z,43.60
2023-01-25T16:10:18.566Z,46.55
2023-01-25T16:12:22.277Z,37.75
2023-01-25T16:14:29.234Z,38.00
2023-01-25T16:16:30.915Z,40.70
2023-01-25T16:18:32.795Z,47.55
2023-01-25T16:20:34.321Z,51.78
2023-01-25T16:22:35.920Z,51.22
2023-01-25T16:24:39.529Z,54.38
2023-01-25T16:26:48.337Z,51.58
2023-01-25T16:28:50.101Z,41.15
2023-01-25T16:30:51.691Z,151.50
2023-01-25T16:32:53.926Z,154.57
2023-01-25T16:34:55.434Z,83.10
2023-01-25T16:36:59.747Z,81.65
2023-01-25T16:39:15.880Z,77.63
2023-01-25T16:41:18.644Z,60.08
2023-01-25T16:43:22.729Z,62.70
2023-01-25T16:45:25.373Z,52.30
2023-01-25T16:47:27.974Z,45.63
2023-01-25T16:49:30.683Z,48.42
2023-01-25T16:51:33.022Z,45.40
2023-01-25T16:53:34.640Z,30.25
2023-01-25T16:55:37.320Z,30.27
2023-01-25T16:57:41.904Z,32.17
2023-01-25T16:59:43.439Z,32.97
2023-01-25T17:01:45.343Z,38.13
2023-01-25T17:03:47.480Z,40.25
2023-01-25T17:05:48.952Z,44.55
2023-01-25T17:07:51.398Z,47.97
2023-01-25T17:09:52.931Z,104.38
2023-01-25T17:11:54.789Z,148.13
2023-01-25T17:13:58.598Z,112.72
2023-01-25T17:16:01.175Z,104.15
2023-01-25T17:18:02.728Z,151.30
2023-01-25T17:20:04.955Z,120.90
2023-01-25T17:22:06.652Z,126.78
2023-01-25T17:24:08.818Z,113.32
2023-01-25T17:26:13.241Z,95.97
2023-01-25T17:28:14.845Z,74.63
2023-01-25T17:30:18.462Z,91.78
2023-01-25T17:32:20.337Z,78.63
2023-01-25T17:34:22.140Z,67.88
2023-01-25T17:36:24.232Z,72.05
2023-01-25T17:38:26.666Z,58.28
2023-01-25T17:40:28.326Z,73.20
2023-01-25T17:42:29.840Z,72.70
2023-01-25T17:44:31.411Z,81.45
2023-01-25T17:46:37.349Z,162.73
2023-01-25T17:48:39.642Z,176.05
2023-01-25T17:50:41.198Z,78.47
2023-01-25T17:52:42.751Z,81.80
2023-01-25T17:54:44.293Z,67.88
2023-01-25T17:56:45.775Z,44.25
2023-01-25T17:58:47.682Z,41.03
2023-01-25T18:00:49.189Z,37.17
2023-01-25T18:02:51.807Z,50.60
2023-01-25T18:04:53.622Z,53.85
2023-01-25T18:06:55.147Z,47.47
2023-01-25T18:09:02.420Z,157.98
2023-01-25T18:11:06.588Z,31.58
2023-01-25T18:13:08.094Z,50.10
2023-01-25T18:15:10.335Z,49.83
2023-01-25T18:17:12.428Z,156.15
2023-01-25T18:19:14.050Z,174.07
2023-01-25T18:21:24.220Z,36.92
2023-01-25T18:23:25.886Z,57.08
2023-01-25T18:25:35.374Z,42.08
2023-01-25T18:27:36.874Z,72.88
2023-01-25T18:29:47.637Z,15.20
2023-01-25T18:31:49.328Z,25.13
2023-01-25T18:33:51.017Z,54.05
2023-01-25T18:35:53.939Z,88.70
2023-01-25T18:37:56.868Z,49.55
2023-01-25T18:39:58.548Z,50.65
2023-01-25T18:42:00.086Z,30.33
2023-01-25T18:44:01.631Z,225.70
2023-01-25T18:46:03.754Z,97.72
2023-01-25T18:48:13.081Z,37.45
2023-01-25T18:50:16.242Z,51.75
2023-01-25T18:52:19.193Z,36.42
2023-01-25T18:54:20.812Z,78.28
2023-01-25T18:56:22.310Z,33.00
2023-01-25T18:58:23.804Z,22.73
2023-01-25T19:00:25.338Z,37.72
2023-01-25T19:02:26.997Z,48.13
2023-01-25T19:04:28.720Z,63.63
2023-01-25T19:06:30.506Z,29.92
2023-01-25T19:08:33.682Z,20.50
2023-01-25T19:10:35.296Z,55.42
2023-01-25T19:12:36.838Z,20.60
2023-01-25T19:14:38.433Z,31.35
2023-01-25T19:16:40.020Z,256.67
2023-01-25T19:18:46.471Z,123.88
2023-01-25T19:20:47.992Z,21.13
2023-01-25T19:22:49.753Z,16.75
2023-01-25T19:24:51.349Z,18.73
2023-01-25T19:26:56.070Z,58.97
2023-01-25T19:28:57.601Z,46.67
2023-01-25T19:31:06.985Z,33.83
2023-01-25T19:33:08.704Z,31.95
2023-01-25T19:35:10.535Z,49.17
2023-01-25T19:37:12.299Z,42.78
2023-01-25T19:39:14.536Z,51.10
2023-01-25T19:41:18.859Z,37.08
2023-01-25T19:43:20.418Z,19.70
2023-01-25T19:45:21.937Z,47.10
2023-01-25T19:47:23.474Z,33.13
2023-01-25T19:49:25.002Z,62.38
2023-01-25T19:51:29.903Z,30.60
2023-01-25T19:53:31.468Z,58.13
2023-01-25T19:55:33.049Z,53.33
2023-01-25T19:57:34.845Z,36.78
2023-01-25T19:59:36.430Z,29.25
2023-01-25T20:01:43.840Z,50.10
2023-01-25T20:03:46.046Z,50.70
2023-01-25T20:05:57.208Z,81.72
2023-01-25T20:07:58.690Z,55.85
2023-01-25T20:10:00.222Z,26.88
2023-01-25T20:12:05.813Z,34.08
2023-01-25T20:14:08.217Z,30.05
2023-01-25T20:16:12.138Z,28.02
2023-01-25T20:18:13.898Z,14.45
2023-01-25T20:20:15.685Z,17.80
2023-01-25T20:22:17.295Z,14.45
2023-01-25T20:24:18.923Z,19.33
2023-01-25T20:26:23.428Z,21.50
2023-01-25T20:28:25.931Z,16.67
2023-01-25T20:30:27.455Z,20.13
2023-01-25T20:32:32.973Z,22.80
2023-01-25T20:34:34.880Z,28.17
2023-01-25T20:36:36.688Z,71.32
2023-01-25T20:38:38.219Z,19.17
2023-01-25T20:40:39.784Z,35.05
2023-01-25T20:42:41.309Z,39.92
2023-01-25T20:44:42.816Z,22.13
2023-01-25T20:46:44.810Z,27.23
2023-01-25T20:48:46.723Z,24.55
2023-01-25T20:50:48.374Z,27.95
2023-01-25T20:52:49.849Z,19.98
2023-01-25T20:54:52.319Z,19.50
2023-01-25T20:56:53.882Z,18.95
2023-01-25T20:58:55.430Z,20.83
2023-01-25T21:00:57.049Z,27.92
2023-01-25T21:02:58.603Z,32.13
2023-01-25T21:05:00.109Z,25.13
2023-01-25T21:07:01.579Z,26.58
2023-01-25T21:09:03.853Z,26.10
2023-01-25T21:11:06.315Z,19.75
2023-01-25T21:13:07.842Z,18.10
2023-01-25T21:15:11.048Z,19.08
2023-01-25T21:17:14.326Z,17.45
2023-01-25T21:19:15.876Z,16.80
2023-01-25T21:21:20.399Z,14.25
2023-01-25T21:23:21.919Z,16.20
2023-01-25T21:25:23.453Z,17.40
2023-01-25T21:27:29.439Z,16.77
2023-01-25T21:29:31.001Z,19.65
2023-01-25T21:31:40.131Z,20.25
2023-01-25T21:33:42.216Z,18.05
2023-01-25T21:35:43.747Z,23.13
2023-01-25T21:37:46.210Z,18.63
2023-01-25T21:39:48.007Z,22.83
2023-01-25T21:41:49.889Z,15.40
2023-01-25T21:44:14.021Z,18.13
2023-01-25T21:46:16.244Z,17.80
2023-01-25T21:48:37.873Z,15.23
2023-01-25T21:50:58.210Z,29.98
2023-01-25T21:52:59.721Z,19.98
2023-01-25T21:55:01.495Z,22.20
2023-01-25T21:57:08.461Z,24.55
2023-01-25T21:59:10.396Z,19.92
2023-01-25T22:01:11.991Z,21.83
2023-01-25T22:03:13.528Z,19.27
2023-01-25T22:05:15.124Z,15.82
2023-01-25T22:07:16.666Z,13.35
2023-01-25T22:09:18.789Z,16.27
2023-01-25T22:11:20.547Z,14.13
2023-01-25T22:13:22.179Z,13.35
2023-01-25T22:15:23.821Z,17.15
2023-01-25T22:17:25.744Z,16.40
2023-01-25T22:19:27.274Z,15.85
2023-01-25T22:21:33.339Z,7.88
2023-01-25T22:23:35.840Z,16.52
2023-01-25T22:25:37.325Z,22.05
2023-01-25T22:27:59.739Z,13.30
2023-01-25T22:30:01.313Z,10.20
2023-01-25T22:32:02.923Z,10.48
2023-01-25T22:34:04.718Z,14.63
2023-01-25T22:36:06.729Z,12.13
2023-01-25T22:38:08.248Z,11.65
2023-01-25T22:40:10.677Z,17.80
2023-01-25T22:42:12.425Z,14.05
2023-01-25T22:44:14.733Z,28.70
2023-01-25T22:46:19.111Z,16.75
2023-01-25T22:48:20.710Z,13.88
2023-01-25T22:50:22.267Z,10.25
2023-01-25T22:52:23.854Z,9.77
2023-01-25T22:54:25.404Z,8.05
2023-01-25T22:56:29.163Z,8.00
2023-01-25T22:58:31.096Z,9.88
2023-01-25T23:00:32.679Z,11.48
2023-01-25T23:02:34.230Z,11.68
2023-01-25T23:04:36.046Z,12.73
2023-01-25T23:06:38.041Z,13.00
2023-01-25T23:08:40.116Z,11.80
2023-01-25T23:10:41.649Z,11.77
2023-01-25T23:12:43.198Z,11.02
2023-01-25T23:14:47.370Z,11.98
2023-01-25T23:16:48.973Z,12.30
2023-01-25T23:18:50.496Z,14.90
2023-01-25T23:20:52.012Z,12.98
2023-01-25T23:22:53.564Z,14.70
2023-01-25T23:24:55.087Z,16.20
2023-01-25T23:26:56.592Z,11.25
2023-01-25T23:28:58.101Z,11.50
2023-01-25T23:31:19.824Z,10.48
2023-01-25T23:33:21.425Z,13.75
2023-01-25T23:35:23.270Z,16.80
2023-01-25T23:37:24.820Z,23.25
2023-01-25T23:39:27.095Z,17.17
2023-01-25T23:41:30.119Z,18.38
2023-01-25T23:43:31.863Z,22.25
2023-01-25T23:45:34.248Z,17.25
2023-01-25T23:47:35.965Z,20.15
2023-01-25T23:49:37.570Z,19.45
2023-01-25T23:51:39.098Z,19.40
2023-01-25T23:53:41.577Z,18.92
2023-01-25T23:55:55.051Z,17.27
2023-01-25T23:57:56.555Z,14.60
2023-01-25T23:59:58.081Z,18.65
